Time;durP1;ratioP1;P1;durP2;ratioP2;P2;SDS_P1;SDS_P2;PMS_P1;PMS_P2;Temp;Humidity;BMP_temperature;BMP_pressure;BME280_temperature;BME280_humidity;BME280_pressure;Samples;Min_cycle;Max_cycle;Signal;HPM_P1;HPM_P2
2021/07/15 00:00:26;;;;;;;11.90;10.30;;;;;;;21.43;100.00;95725.47;5073067;28;20201;-82
2021/07/15 00:02:53;;;;;;;12.83;10.30;;;;;;;21.14;100.00;95734.28;5073348;28;20273;-82
2021/07/15 00:05:21;;;;;;;9.50;8.70;;;;;;;20.99;100.00;95741.19;5073454;28;20208;-81
2021/07/15 00:07:49;;;;;;;11.67;9.07;;;;;;;20.99;100.00;95728.66;5073389;28;20232;-82
2021/07/15 00:10:21;;;;;;;10.30;9.10;;;;;;;21.35;100.00;95729.34;5073102;28;20308;-82
2021/07/15 00:12:50;;;;;;;9.20;8.40;;;;;;;21.34;100.00;95767.84;5073151;28;20185;-82
2021/07/15 00:15:22;;;;;;;10.13;9.10;;;;;;;21.25;100.00;95783.41;5073044;28;20284;-82
2021/07/15 00:17:50;;;;;;;11.77;9.73;;;;;;;21.30;100.00;95830.78;5072917;28;20186;-82
2021/07/15 00:20:18;;;;;;;9.87;8.97;;;;;;;21.24;100.00;95850.47;5073329;28;20620;-82
2021/07/15 00:22:45;;;;;;;11.17;8.97;;;;;;;21.33;100.00;95857.84;5073143;28;20246;-82
2021/07/15 00:25:16;;;;;;;9.77;8.83;;;;;;;21.19;100.00;95845.00;5070879;28;20296;-82
2021/07/15 00:27:44;;;;;;;10.47;9.43;;;;;;;20.99;100.00;95830.19;5072369;28;20291;-82
2021/07/15 00:30:14;;;;;;;9.20;8.40;;;;;;;21.13;100.00;95825.38;5073003;28;20221;-82
2021/07/15 00:32:43;;;;;;;8.87;8.07;;;;;;;20.98;100.00;95809.81;5072744;28;20196;-82
2021/07/15 00:35:11;;;;;;;10.27;8.67;;;;;;;20.97;100.00;95805.53;5072715;28;20205;-81
2021/07/15 00:37:39;;;;;;;9.63;7.97;;;;;;;20.91;100.00;95819.84;5072714;28;20201;-81
2021/07/15 00:40:09;;;;;;;10.60;9.70;;;;;;;20.82;100.00;95822.06;5072882;28;20273;-82
2021/07/15 00:42:37;;;;;;;9.90;8.93;;;;;;;21.11;100.00;95830.94;5072617;28;20765;-82
2021/07/15 00:45:05;;;;;;;9.70;8.80;;;;;;;21.06;100.00;95859.41;5072255;28;20235;-82
2021/07/15 00:47:33;;;;;;;11.57;9.30;;;;;;;20.93;100.00;95865.84;5071825;28;20216;-82
2021/07/15 00:50:01;;;;;;;10.47;9.50;;;;;;;20.75;100.00;95853.41;5072566;28;20263;-82
2021/07/15 00:52:29;;;;;;;12.87;10.20;;;;;;;20.73;100.00;95844.00;5072759;28;20630;-82
2021/07/15 00:54:56;;;;;;;10.70;9.60;;;;;;;20.79;100.00;95840.41;5071746;28;20250;-82
2021/07/15 00:57:24;;;;;;;9.80;8.87;;;;;;;20.77;100.00;95829.13;5072699;28;20193;-81
2021/07/15 00:59:51;;;;;;;11.93;10.30;;;;;;;20.54;100.00;95805.91;5072132;28;20218;-82
2021/07/15 01:02:19;;;;;;;11.23;9.73;;;;;;;20.52;100.00;95768.78;5072299;28;20254;-83
2021/07/15 01:04:47;;;;;;;11.30;9.33;;;;;;;20.62;100.00;95773.53;5072040;28;20237;-83
2021/07/15 01:07:15;;;;;;;10.10;9.20;;;;;;;20.62;100.00;95761.00;5072317;28;20228;-82
2021/07/15 01:09:43;;;;;;;9.73;8.90;;;;;;;20.85;100.00;95754.81;5071871;28;20256;-83
2021/07/15 01:12:25;;;;;;;10.60;9.63;;;;;;;20.57;100.00;95746.72;5072543;28;20270;-83
2021/07/15 01:15:05;;;;;;;10.80;9.43;;;;;;;20.50;100.00;95746.00;5071961;28;20268;-83
2021/07/15 01:17:39;;;;;;;10.63;9.60;;;;;;;20.53;100.00;95735.69;5071834;28;20185;-83
2021/07/15 01:20:34;;;;;;;9.67;8.87;;;;;;;20.64;100.00;95747.41;5072326;28;20576;-82
2021/07/15 01:23:16;;;;;;;9.37;8.57;;;;;;;20.47;100.00;95746.47;5071915;28;20181;-82
2021/07/15 01:26:08;;;;;;;11.30;9.50;;;;;;;20.42;100.00;95715.94;5072030;28;20613;-82
2021/07/15 01:29:05;;;;;;;10.27;9.37;;;;;;;20.57;100.00;95706.66;5071500;28;20232;-82
2021/07/15 01:31:37;;;;;;;11.40;10.40;;;;;;;20.61;100.00;95724.69;5072065;28;20181;-82
2021/07/15 01:34:06;;;;;;;10.83;9.27;;;;;;;20.53;100.00;95722.34;5071777;28;20192;-82
2021/07/15 01:36:35;;;;;;;10.23;9.20;;;;;;;20.53;100.00;95714.34;5072009;28;20271;-82
2021/07/15 01:39:07;;;;;;;10.70;9.70;;;;;;;20.48;100.00;95724.09;5071733;28;20193;-82
2021/07/15 01:41:38;;;;;;;11.73;9.77;;;;;;;20.56;100.00;95711.19;5072005;28;20658;-81
2021/07/15 01:44:10;;;;;;;10.93;9.53;;;;;;;20.62;100.00;95733.50;5071689;28;20638;-82
2021/07/15 01:46:40;;;;;;;10.80;9.33;;;;;;;20.57;100.00;95725.34;5072433;28;20213;-82
2021/07/15 01:49:09;;;;;;;12.47;10.67;;;;;;;20.55;100.00;95693.56;5071284;28;20688;-82
2021/07/15 01:51:37;;;;;;;12.60;10.30;;;;;;;20.47;100.00;95685.91;5071654;28;20315;-82
2021/07/15 01:54:05;;;;;;;11.87;10.73;;;;;;;20.30;100.00;95661.78;5071705;28;20735;-82
2021/07/15 01:56:34;;;;;;;12.20;9.83;;;;;;;20.31;100.00;95611.91;5071397;28;20236;-82
2021/07/15 01:59:02;;;;;;;11.70;10.43;;;;;;;20.35;100.00;95613.84;5073583;28;20215;-82
2021/07/15 02:01:31;;;;;;;10.70;9.80;;;;;;;20.26;100.00;95611.78;5076054;28;20630;-82
2021/07/15 02:04:02;;;;;;;11.37;10.10;;;;;;;20.27;100.00;95592.88;5075478;28;20582;-82
2021/07/15 02:06:31;;;;;;;13.40;10.00;;;;;;;20.29;100.00;95579.28;5075332;28;20189;-82
2021/07/15 02:09:01;;;;;;;10.80;9.70;;;;;;;20.26;100.00;95604.56;5075441;28;20232;-83
2021/07/15 02:11:33;;;;;;;11.10;10.10;;;;;;;20.24;100.00;95605.88;5075422;28;20221;-83
2021/07/15 02:14:02;;;;;;;9.97;9.00;;;;;;;20.30;100.00;95621.75;5075353;28;20196;-82
2021/07/15 02:16:31;;;;;;;10.97;9.93;;;;;;;20.22;100.00;95639.97;5075144;28;20683;-82
2021/07/15 02:19:02;;;;;;;10.47;9.47;;;;;;;20.25;100.00;95652.84;5075336;28;20197;-82
2021/07/15 02:21:31;;;;;;;10.73;9.80;;;;;;;20.39;100.00;95652.34;5075314;28;20638;-83
2021/07/15 02:24:02;;;;;;;14.20;10.93;;;;;;;20.39;100.00;95655.03;5074958;28;20298;-82
2021/07/15 02:26:30;;;;;;;11.00;9.90;;;;;;;20.47;100.00;95661.88;5075126;28;20238;-82
2021/07/15 02:28:58;;;;;;;12.90;10.63;;;;;;;20.39;100.00;95651.56;5075451;28;20317;-82
2021/07/15 02:31:30;;;;;;;11.73;10.03;;;;;;;20.49;100.00;95643.75;5075132;28;20228;-82
2021/07/15 02:34:03;;;;;;;10.93;10.00;;;;;;;20.38;100.00;95636.59;5074995;28;20185;-82
2021/07/15 02:36:32;;;;;;;11.80;10.43;;;;;;;20.29;100.00;95635.31;5075045;28;20254;-82
2021/07/15 02:39:03;;;;;;;12.13;10.37;;;;;;;20.46;100.00;95633.53;5074814;28;20203;-82
2021/07/15 02:41:30;;;;;;;10.60;9.70;;;;;;;20.32;100.00;95613.50;5075005;28;20220;-82
2021/07/15 02:43:57;;;;;;;10.97;9.93;;;;;;;20.29;100.00;95597.97;5062995;28;20202;-84
2021/07/15 02:46:24;;;;;;;11.07;9.97;;;;;;;20.34;100.00;95598.88;5055099;28;20371;-84
2021/07/15 02:48:52;;;;;;;10.33;9.33;;;;;;;20.29;100.00;95606.78;5054601;28;20244;-85
2021/07/15 02:51:21;;;;;;;10.93;9.93;;;;;;;20.33;100.00;95604.44;5054525;28;20226;-86
2021/07/15 02:53:48;;;;;;;11.13;10.13;;;;;;;20.25;100.00;95618.16;5054034;28;20755;-85
2021/07/15 02:56:23;;;;;;;12.43;10.07;;;;;;;20.05;100.00;95606.00;5054439;28;20236;-85
2021/07/15 02:58:58;;;;;;;10.30;9.33;;;;;;;20.27;100.00;95606.22;5054100;28;20186;-84
2021/07/15 03:01:28;;;;;;;11.30;10.23;;;;;;;20.28;100.00;95620.38;5054318;28;20248;-84
2021/07/15 03:04:01;;;;;;;10.77;9.77;;;;;;;20.34;100.00;95625.56;5054362;28;20243;-86
2021/07/15 03:06:37;;;;;;;11.47;9.93;;;;;;;20.40;100.00;95632.66;5054618;28;20188;-85
2021/07/15 03:09:09;;;;;;;9.93;9.00;;;;;;;20.29;100.00;95622.78;5054121;28;20217;-85
2021/07/15 03:11:40;;;;;;;11.57;10.43;;;;;;;20.34;100.00;95627.44;5053472;28;20213;-82
2021/07/15 03:14:09;;;;;;;10.20;9.37;;;;;;;20.20;100.00;95634.88;5053841;28;20244;-81
2021/07/15 03:16:40;;;;;;;10.57;9.50;;;;;;;20.18;100.00;95620.97;5054206;28;20237;-82
2021/07/15 03:19:10;;;;;;;11.70;10.63;;;;;;;19.99;100.00;95603.50;5054150;28;20621;-82
2021/07/15 03:21:42;;;;;;;10.10;9.10;;;;;;;20.11;100.00;95602.41;5054034;28;20194;-83
2021/07/15 03:24:11;;;;;;;10.83;9.53;;;;;;;19.98;100.00;95597.31;5054238;28;20252;-83
2021/07/15 03:26:39;;;;;;;10.00;9.10;;;;;;;19.84;100.00;95572.75;5054083;28;20236;-82
2021/07/15 03:29:08;;;;;;;11.10;10.10;;;;;;;19.80;100.00;95542.28;5053689;28;20209;-83
2021/07/15 03:31:36;;;;;;;10.67;9.43;;;;;;;20.07;100.00;95539.91;5053533;28;20286;-82
2021/07/15 03:34:03;;;;;;;12.07;10.40;;;;;;;20.14;100.00;95564.59;5053643;28;20204;-82
2021/07/15 03:36:33;;;;;;;10.50;9.53;;;;;;;20.12;100.00;95600.53;5053880;28;20697;-83
2021/07/15 03:39:05;;;;;;;11.87;9.67;;;;;;;19.98;100.00;95600.00;5054316;28;20269;-82
2021/07/15 03:41:33;;;;;;;11.03;10.03;;;;;;;19.91;100.00;95593.97;5053644;28;20595;-82
2021/07/15 03:44:02;;;;;;;10.57;9.57;;;;;;;19.90;100.00;95585.16;5051023;28;20655;-80
2021/07/15 03:46:29;;;;;;;11.90;10.37;;;;;;;19.66;100.00;95551.56;5053595;28;20202;-80
2021/07/15 03:48:57;;;;;;;13.83;10.47;;;;;;;19.75;100.00;95541.38;5053053;28;20500;-80
2021/07/15 03:51:25;;;;;;;12.43;9.70;;;;;;;19.91;100.00;95548.63;5053364;28;20232;-80
2021/07/15 03:53:53;;;;;;;13.50;9.70;;;;;;;20.13;100.00;95560.31;5053382;28;20244;-79
2021/07/15 03:56:22;;;;;;;12.03;10.90;;;;;;;20.24;100.00;95598.69;5053487;28;20666;-80
2021/07/15 03:58:50;;;;;;;15.03;10.07;;;;;;;20.15;100.00;95621.44;5053259;28;20655;-79
2021/07/15 04:01:19;;;;;;;11.03;9.93;;;;;;;20.07;100.00;95601.25;5053525;28;20190;-80
2021/07/15 04:03:51;;;;;;;11.30;10.27;;;;;;;20.13;100.00;95588.84;5053256;28;20284;-79
2021/07/15 04:06:23;;;;;;;12.80;9.70;;;;;;;20.08;100.00;95570.88;5053469;28;20605;-79
2021/07/15 04:08:52;;;;;;;11.27;10.17;;;;;;;20.03;100.00;95565.44;5052875;28;20182;-79
2021/07/15 04:11:20;;;;;;;10.90;9.80;;;;;;;20.14;100.00;95556.59;5053429;28;20222;-80
2021/07/15 04:13:51;;;;;;;11.57;10.00;;;;;;;19.93;100.00;95549.22;5052633;28;20244;-80
2021/07/15 04:16:35;;;;;;;11.50;10.30;;;;;;;19.93;100.00;95527.88;5053518;28;20186;-80
2021/07/15 04:19:06;;;;;;;11.63;10.27;;;;;;;19.84;100.00;95522.09;5052796;28;20182;-80
2021/07/15 04:21:35;;;;;;;10.40;9.17;;;;;;;19.99;100.00;95515.47;5052529;28;20268;-80
2021/07/15 04:24:04;;;;;;;11.47;9.67;;;;;;;20.10;100.00;95510.09;5052568;28;20189;-80
2021/07/15 04:26:31;;;;;;;14.23;9.83;;;;;;;20.14;100.00;95510.44;5053071;28;20247;-80
2021/07/15 04:29:01;;;;;;;13.43;10.00;;;;;;;20.03;100.00;95514.75;5052855;28;20198;-80
2021/07/15 04:31:38;;;;;;;11.13;10.07;;;;;;;20.08;100.00;95496.16;5053198;28;20261;-80
2021/07/15 04:34:06;;;;;;;12.67;9.13;;;;;;;20.03;100.00;95488.09;5052739;28;20326;-80
2021/07/15 04:36:34;;;;;;;10.97;10.07;;;;;;;20.16;100.00;95487.00;5052170;28;20585;-80
2021/07/15 04:39:02;;;;;;;10.03;9.13;;;;;;;20.19;100.00;95489.16;5052685;28;20281;-80
2021/07/15 04:41:31;;;;;;;10.53;9.53;;;;;;;20.32;100.00;95496.09;5052832;28;20194;-80
2021/07/15 04:44:02;;;;;;;12.87;10.30;;;;;;;20.40;100.00;95509.88;5052506;28;20201;-80
2021/07/15 04:46:29;;;;;;;11.70;10.50;;;;;;;20.43;100.00;95516.56;5052704;28;20232;-80
2021/07/15 04:48:57;;;;;;;13.53;11.33;;;;;;;20.51;100.00;95531.47;5052135;28;20690;-80
2021/07/15 04:51:25;;;;;;;11.10;10.00;;;;;;;20.46;100.00;95540.13;5052501;28;20316;-80
2021/07/15 04:53:54;;;;;;;10.60;9.50;;;;;;;20.60;100.00;95540.69;5052714;28;20198;-80
2021/07/15 04:56:22;;;;;;;11.90;10.10;;;;;;;20.66;100.00;95548.53;5052517;28;20229;-80
2021/07/15 04:58:52;;;;;;;11.63;10.50;;;;;;;20.74;100.00;95549.22;5052204;28;20288;-80
2021/07/15 05:01:21;;;;;;;13.80;9.57;;;;;;;20.73;100.00;95566.28;5052125;28;20197;-80
2021/07/15 05:03:48;;;;;;;10.17;8.90;;;;;;;20.74;100.00;95567.91;5052198;28;20647;-80
2021/07/15 05:06:15;;;;;;;11.83;10.03;;;;;;;20.82;100.00;95554.97;5052309;28;20227;-80
2021/07/15 05:08:43;;;;;;;10.17;9.27;;;;;;;20.78;100.00;95587.72;5052056;28;20236;-80
2021/07/15 05:11:12;;;;;;;12.60;9.00;;;;;;;20.88;100.00;95574.56;5052193;28;20244;-80
2021/07/15 05:13:39;;;;;;;12.73;9.20;;;;;;;20.97;100.00;95569.66;5052312;28;20570;-80
2021/07/15 05:16:07;;;;;;;10.20;8.87;;;;;;;21.02;100.00;95575.06;5052214;28;20718;-80
2021/07/15 05:18:37;;;;;;;12.47;9.87;;;;;;;21.01;100.00;95576.94;5052397;28;20625;-80
2021/07/15 05:21:05;;;;;;;11.80;10.43;;;;;;;21.18;100.00;95597.53;5052376;28;20633;-80
2021/07/15 05:23:32;;;;;;;9.43;8.63;;;;;;;21.24;100.00;95610.75;5052219;28;20263;-80
2021/07/15 05:25:59;;;;;;;15.13;9.93;;;;;;;21.31;100.00;95624.75;5052173;28;20636;-80
2021/07/15 05:28:27;;;;;;;10.53;9.63;;;;;;;21.50;100.00;95614.66;5052347;28;20212;-80
2021/07/15 05:30:54;;;;;;;11.60;10.47;;;;;;;21.59;100.00;95621.22;5051666;28;20785;-80
2021/07/15 05:33:23;;;;;;;14.13;10.33;;;;;;;21.64;100.00;95628.50;5051650;28;20214;-80
2021/07/15 05:35:52;;;;;;;15.57;11.50;;;;;;;21.85;100.00;95648.34;5051886;28;20198;-80
2021/07/15 05:38:19;;;;;;;15.60;10.97;;;;;;;21.88;100.00;95682.66;5051463;28;20689;-80
2021/07/15 05:40:47;;;;;;;11.77;10.20;;;;;;;21.93;100.00;95717.53;5051964;28;20713;-80
2021/07/15 05:43:14;;;;;;;11.30;10.33;;;;;;;22.16;100.00;95734.47;5051786;28;20288;-80
2021/07/15 05:45:41;;;;;;;11.87;10.67;;;;;;;22.27;100.00;95750.47;5051996;28;20202;-80
2021/07/15 05:48:09;;;;;;;13.73;10.37;;;;;;;22.42;100.00;95786.56;5051559;28;20209;-80
2021/07/15 05:50:36;;;;;;;14.70;10.27;;;;;;;22.60;100.00;95822.97;5051762;28;20288;-80
2021/07/15 05:53:05;;;;;;;11.50;10.37;;;;;;;22.85;100.00;95803.75;5051884;28;20198;-80
2021/07/15 05:55:32;;;;;;;11.70;10.50;;;;;;;23.08;100.00;95827.69;5051704;28;20297;-80
2021/07/15 05:58:00;;;;;;;12.73;10.30;;;;;;;23.19;100.00;95856.25;5051299;28;20260;-80
2021/07/15 06:00:27;;;;;;;9.97;8.97;;;;;;;23.30;100.00;95913.50;5051788;28;20682;-80
2021/07/15 06:02:55;;;;;;;10.27;9.37;;;;;;;23.38;100.00;95921.13;5051661;28;20198;-81
2021/07/15 06:05:23;;;;;;;11.63;10.20;;;;;;;23.41;100.00;95942.06;5051966;28;20322;-81
2021/07/15 06:07:52;;;;;;;11.70;10.60;;;;;;;23.71;100.00;95932.84;5051495;28;20263;-81
2021/07/15 06:10:21;;;;;;;10.77;9.80;;;;;;;23.89;100.00;95961.22;5051517;28;20202;-81
2021/07/15 06:12:48;;;;;;;10.90;9.73;;;;;;;24.01;100.00;95991.47;5051476;28;20268;-81
2021/07/15 06:15:16;;;;;;;9.33;8.53;;;;;;;24.19;100.00;96001.06;5051519;28;20229;-80
2021/07/15 06:17:43;;;;;;;10.53;9.53;;;;;;;24.42;100.00;96014.25;5051526;28;20198;-81
2021/07/15 06:20:13;;;;;;;9.97;8.50;;;;;;;24.76;100.00;96089.28;5051072;28;20198;-80
2021/07/15 06:22:41;;;;;;;9.17;8.13;;;;;;;25.02;100.00;96128.00;5051634;28;20667;-81
2021/07/15 06:25:10;;;;;;;11.60;8.13;;;;;;;25.22;100.00;96166.97;5051021;28;20241;-81
2021/07/15 06:27:39;;;;;;;8.97;8.07;;;;;;;25.23;100.00;96193.59;5051797;28;20574;-81
2021/07/15 06:30:08;;;;;;;7.90;7.17;;;;;;;25.40;100.00;96214.22;5051207;28;20237;-81
2021/07/15 06:32:36;;;;;;;9.03;6.83;;;;;;;25.61;100.00;96218.72;5051620;28;20221;-81
2021/07/15 06:35:04;;;;;;;7.30;6.60;;;;;;;25.94;100.00;96278.81;5050888;28;20198;-81
2021/07/15 06:37:34;;;;;;;14.43;7.43;;;;;;;26.17;100.00;96288.44;5051571;28;20202;-81
2021/07/15 06:40:04;;;;;;;8.37;4.10;;;;;;;26.24;100.00;96332.94;5051055;28;20208;-81
2021/07/15 06:42:32;;;;;;;5.67;4.50;;;;;;;26.22;100.00;96350.44;5051285;28;20221;-81
2021/07/15 06:45:01;;;;;;;6.30;5.65;;;;;;;26.47;100.00;96333.72;5051334;28;20202;-82
2021/07/15 06:47:28;;;;;;;7.75;4.90;;;;;;;26.53;100.00;96343.44;5054677;28;20737;-81
2021/07/15 06:49:55;;;;;;;11.27;5.40;;;;;;;26.71;100.00;96336.84;5054961;28;20224;-81
2021/07/15 06:52:26;;;;;;;6.90;6.28;;;;;;;26.70;100.00;96330.63;5054758;28;20300;-81
2021/07/15 06:54:55;;;;;;;9.05;6.88;;;;;;;26.88;100.00;96315.94;5054655;28;20710;-81
2021/07/15 06:57:22;;;;;;;6.80;6.10;;;;;;;26.83;100.00;96309.69;5054823;28;20209;-81
2021/07/15 06:59:50;;;;;;;10.55;6.80;;;;;;;27.07;100.00;96310.91;5054730;28;20304;-81
2021/07/15 07:02:18;;;;;;;7.32;6.63;;;;;;;27.18;100.00;96311.78;5054651;28;20240;-81
2021/07/15 07:04:46;;;;;;;8.93;7.00;;;;;;;27.54;100.00;96314.59;5054396;28;20210;-82
2021/07/15 07:07:13;;;;;;;7.85;6.60;;;;;;;27.60;100.00;96317.06;5054634;28;20194;-82
2021/07/15 07:09:40;;;;;;;7.57;6.78;;;;;;;27.54;100.00;96326.25;5054248;28;20202;-81
2021/07/15 07:12:08;;;;;;;6.97;6.30;;;;;;;27.41;100.00;96326.72;5054378;28;20226;-81
2021/07/15 07:14:36;;;;;;;10.25;7.63;;;;;;;27.36;100.00;96315.91;5054023;28;20237;-81
2021/07/15 07:17:03;;;;;;;8.05;7.25;;;;;;;27.56;100.00;96315.97;5054297;28;20259;-81
2021/07/15 07:19:32;;;;;;;14.30;7.07;;;;;;;27.61;100.00;96331.41;5054108;28;20293;-81
2021/07/15 07:21:59;;;;;;;8.85;6.78;;;;;;;27.59;100.00;96328.94;5054270;28;20285;-81
2021/07/15 07:24:27;;;;;;;7.63;6.80;;;;;;;27.59;100.00;96338.94;5054051;28;20293;-81
2021/07/15 07:26:54;;;;;;;11.00;6.55;;;;;;;28.04;100.00;96340.97;5054071;28;20194;-81
2021/07/15 07:29:21;;;;;;;6.30;5.70;;;;;;;27.98;100.00;96345.53;5053981;28;20267;-81
2021/07/15 07:31:49;;;;;;;7.72;6.15;;;;;;;28.29;100.00;96353.69;5053983;28;20268;-81
2021/07/15 07:34:16;;;;;;;5.72;4.78;;;;;;;28.56;100.00;96358.88;5053610;28;20249;-81
2021/07/15 07:36:45;;;;;;;9.82;5.05;;;;;;;28.38;100.00;96364.78;5054243;28;20229;-81
2021/07/15 07:39:12;;;;;;;6.43;4.43;;;;;;;28.26;100.00;96375.84;5054011;28;20285;-81
2021/07/15 07:41:39;;;;;;;5.43;4.00;;;;;;;28.30;100.00;96389.63;5053851;28;20585;-82
2021/07/15 07:44:07;;;;;;;6.43;4.00;;;;;;;28.32;100.00;96380.19;5053831;28;20198;-82
2021/07/15 07:46:35;;;;;;;3.65;3.35;;;;;;;28.49;100.00;96390.75;5054142;28;20639;-81
2021/07/15 07:49:02;;;;;;;7.88;4.47;;;;;;;28.54;100.00;96395.34;5053511;28;20233;-82
2021/07/15 07:51:31;;;;;;;6.30;4.40;;;;;;;28.48;100.00;96394.56;5053654;28;20632;-82
2021/07/15 07:54:00;;;;;;;5.38;3.53;;;;;;;28.56;100.00;96395.91;5053558;28;20280;-82
2021/07/15 07:56:27;;;;;;;5.57;4.38;;;;;;;28.96;100.00;96388.84;5053318;28;20324;-82
2021/07/15 07:58:55;;;;;;;8.40;3.60;;;;;;;29.03;100.00;96411.06;5053368;28;20209;-82
2021/07/15 08:01:22;;;;;;;9.63;5.25;;;;;;;28.74;100.00;96408.88;5053512;28;20230;-82
2021/07/15 08:03:49;;;;;;;7.22;3.75;;;;;;;29.11;100.00;96396.97;5053109;28;20292;-82
2021/07/15 08:06:18;;;;;;;5.03;4.05;;;;;;;29.32;100.00;96414.00;5053458;28;20281;-82
2021/07/15 08:08:45;;;;;;;4.78;3.75;;;;;;;29.48;100.00;96402.03;5053277;28;20198;-82
2021/07/15 08:11:15;;;;;;;3.85;3.55;;;;;;;29.38;100.00;96405.56;5053440;28;20198;-82
2021/07/15 08:13:43;;;;;;;3.85;3.40;;;;;;;29.45;100.00;96412.59;5053175;28;20284;-82
2021/07/15 08:16:10;;;;;;;7.88;3.65;;;;;;;29.55;100.00;96416.09;5053448;28;20206;-82
2021/07/15 08:18:37;;;;;;;4.07;3.17;;;;;;;29.39;100.00;96415.31;5053474;28;20608;-82
2021/07/15 08:21:05;;;;;;;6.35;3.92;;;;;;;29.00;100.00;96409.72;5053229;28;20252;-82
2021/07/15 08:23:32;;;;;;;4.60;3.65;;;;;;;29.40;100.00;96405.28;5053043;28;20193;-82
2021/07/15 08:25:59;;;;;;;4.18;2.75;;;;;;;29.56;100.00;96406.88;5053049;28;20233;-82
2021/07/15 08:28:28;;;;;;;10.38;3.08;;;;;;;29.66;100.00;96399.84;5052820;28;20288;-82
2021/07/15 08:30:55;;;;;;;4.10;3.78;;;;;;;29.49;100.00;96397.44;5052953;28;20216;-82
2021/07/15 08:33:23;;;;;;;5.10;3.63;;;;;;;29.65;100.00;96381.94;5052356;28;20741;-82
2021/07/15 08:35:50;;;;;;;6.72;3.65;;;;;;;29.80;100.00;96387.31;5052904;28;20288;-82
2021/07/15 08:38:19;;;;;;;6.55;4.10;;;;;;;29.86;100.00;96380.78;5052625;28;20206;-82
2021/07/15 08:40:47;;;;;;;3.33;3.03;;;;;;;29.64;100.00;96393.88;5053109;28;20716;-82
2021/07/15 08:43:15;;;;;;;8.98;3.38;;;;;;;29.64;100.00;96377.63;5052565;28;20209;-82
2021/07/15 08:45:45;;;;;;;4.45;3.10;;;;;;;30.02;100.00;96379.59;5052460;28;20241;-82
2021/07/15 08:48:13;;;;;;;3.95;3.40;;;;;;;29.72;100.00;96385.16;5052637;28;20741;-83
2021/07/15 08:50:41;;;;;;;3.60;3.10;;;;;;;29.91;100.00;96379.94;5052885;28;20220;-82
2021/07/15 08:53:09;;;;;;;4.97;3.65;;;;;;;30.07;100.00;96381.47;5052085;28;20221;-82
2021/07/15 08:58:21;;;;;;;4.68;3.40;;;;;;;30.22;100.00;96383.31;5052799;28;20320;-82
2021/07/15 09:00:50;;;;;;;7.35;3.80;;;;;;;30.45;100.00;96379.88;5051730;28;20201;-82
2021/07/15 09:03:18;;;;;;;4.13;3.40;;;;;;;30.45;100.00;96377.19;5052186;28;20194;-82
2021/07/15 09:05:45;;;;;;;7.20;3.30;;;;;;;30.45;100.00;96377.19;5052646;28;20674;-83
2021/07/15 09:08:14;;;;;;;4.28;3.88;;;;;;;30.59;100.00;96376.50;5051917;28;20225;-82
2021/07/15 09:10:42;;;;;;;3.50;3.20;;;;;;;30.59;100.00;96380.06;5052412;28;20204;-83
2021/07/15 09:13:10;;;;;;;4.00;3.63;;;;;;;30.25;100.00;96374.63;5051972;28;20312;-82
2021/07/15 09:15:39;;;;;;;8.75;3.50;;;;;;;30.68;100.00;96374.81;5052443;28;20281;-83
2021/07/15 09:18:14;;;;;;;3.38;3.10;;;;;;;30.96;100.00;96376.75;5051943;28;20206;-82
2021/07/15 09:20:42;;;;;;;4.43;3.35;;;;;;;30.89;100.00;96370.84;5051662;28;20190;-83
2021/07/15 09:23:11;;;;;;;6.65;3.28;;;;;;;30.64;100.00;96365.63;5051919;28;20198;-82
2021/07/15 09:26:00;;;;;;;4.22;2.95;;;;;;;30.74;100.00;96366.34;5052019;28;20194;-82
2021/07/15 09:28:31;;;;;;;5.90;3.80;;;;;;;30.47;100.00;96363.31;5052140;28;20214;-82
2021/07/15 09:31:15;;;;;;;6.68;4.03;;;;;;;30.67;100.00;96362.34;5052026;28;20186;-83
2021/07/15 09:33:45;;;;;;;4.53;3.25;;;;;;;30.86;100.00;96366.00;5051788;28;20210;-83
2021/07/15 09:36:14;;;;;;;8.27;3.72;;;;;;;31.14;100.00;96366.25;5052086;28;20689;-83
2021/07/15 09:38:42;;;;;;;5.15;4.65;;;;;;;31.12;100.00;96363.84;5051692;28;20194;-83
2021/07/15 09:41:17;;;;;;;4.70;4.40;;;;;;;31.04;100.00;96356.34;5052087;28;20576;-83
2021/07/15 09:43:45;;;;;;;5.45;3.70;;;;;;;31.27;100.00;96352.81;5051543;28;20263;-83
2021/07/15 09:46:24;;;;;;;17.88;16.23;;;;;;;31.52;100.00;96347.41;5051814;28;20244;-83
2021/07/15 09:49:06;;;;;;;4.80;4.28;;;;;;;31.39;100.00;96340.78;5051658;28;20186;-83
2021/07/15 09:51:42;;;;;;;9.43;4.00;;;;;;;31.56;100.00;96340.31;5051591;28;20193;-83
2021/07/15 09:54:11;;;;;;;9.52;4.20;;;;;;;31.55;100.00;96344.09;5051789;28;20307;-83
2021/07/15 09:56:43;;;;;;;3.92;3.45;;;;;;;31.78;100.00;96345.97;5051585;28;20371;-83
2021/07/15 09:59:11;;;;;;;8.63;3.72;;;;;;;31.93;100.00;96347.69;5051465;28;20236;-83
2021/07/15 10:01:46;;;;;;;5.63;3.35;;;;;;;31.79;100.00;96328.56;5051565;28;20229;-83
2021/07/15 10:04:23;;;;;;;5.45;4.00;;;;;;;31.88;100.00;96332.28;5051487;28;20217;-83
2021/07/15 10:06:51;;;;;;;6.57;3.67;;;;;;;31.85;100.00;96335.56;5051605;28;20196;-83
2021/07/15 10:09:26;;;;;;;4.88;3.88;;;;;;;31.77;100.00;96335.41;5051390;28;20685;-82
2021/07/15 10:11:57;;;;;;;7.88;3.75;;;;;;;31.33;100.00;96333.78;5051312;28;20562;-83
2021/07/15 10:14:36;;;;;;;4.18;3.70;;;;;;;31.45;100.00;96329.56;5051346;28;20244;-83
2021/07/15 10:17:05;;;;;;;6.25;3.90;;;;;;;31.86;100.00;96326.28;5051792;28;20197;-83
2021/07/15 10:19:34;;;;;;;4.90;3.78;;;;;;;32.11;100.00;96329.75;5051239;28;20214;-83
2021/07/15 10:22:04;;;;;;;4.78;3.67;;;;;;;32.07;100.00;96324.09;5054901;28;20198;-83
2021/07/15 10:24:32;;;;;;;4.25;3.80;;;;;;;32.04;100.00;96326.63;5055201;28;20197;-82
2021/07/15 10:27:00;;;;;;;3.78;3.47;;;;;;;32.04;100.00;96324.72;5055676;28;20201;-83
2021/07/15 10:29:28;;;;;;;4.68;4.13;;;;;;;32.04;100.00;96324.72;5055252;28;20639;-83
2021/07/15 10:31:56;;;;;;;6.43;3.90;;;;;;;31.78;100.00;96320.72;5055513;28;20198;-83
2021/07/15 10:34:25;;;;;;;4.13;3.83;;;;;;;32.20;100.00;96322.56;5055038;28;20703;-83
2021/07/15 10:36:56;;;;;;;4.50;4.10;;;;;;;31.99;100.00;96326.69;5054925;28;20245;-82
2021/07/15 10:39:26;;;;;;;5.07;4.32;;;;;;;32.24;100.00;96314.63;5055339;28;20202;-83
2021/07/15 10:41:56;;;;;;;5.50;4.18;;;;;;;31.72;100.00;96319.97;5055009;28;20194;-83
2021/07/15 10:44:25;;;;;;;5.10;4.60;;;;;;;32.03;100.00;96312.22;5054914;28;20186;-83
2021/07/15 10:46:53;;;;;;;4.57;4.03;;;;;;;32.12;100.00;96315.09;5054704;28;20629;-83
2021/07/15 10:49:21;;;;;;;4.85;4.35;;;;;;;32.08;100.00;96311.34;5054741;28;20237;-83
2021/07/15 10:51:51;;;;;;;12.07;4.30;;;;;;;32.38;100.00;96312.75;5055088;28;20194;-83
2021/07/15 10:54:21;;;;;;;4.15;3.85;;;;;;;32.57;100.00;96313.56;5054661;28;20259;-83
2021/07/15 10:56:51;;;;;;;4.88;4.22;;;;;;;32.32;100.00;96309.34;5054497;28;20226;-82
2021/07/15 10:59:26;;;;;;;5.20;4.78;;;;;;;32.58;100.00;96307.00;5054595;28;20233;-83
2021/07/15 11:01:54;;;;;;;9.45;3.92;;;;;;;31.98;100.00;96317.75;5054620;28;20662;-82
2021/07/15 11:04:35;;;;;;;5.22;4.40;;;;;;;31.97;100.00;96318.81;5054459;28;20204;-83
2021/07/15 11:07:17;;;;;;;9.65;4.57;;;;;;;32.10;100.00;96309.13;5054399;28;20232;-83
2021/07/15 11:09:46;;;;;;;5.43;4.43;;;;;;;31.95;100.00;96319.13;5054526;28;20186;-83
2021/07/15 11:12:35;;;;;;;7.25;3.95;;;;;;;32.63;100.00;96306.94;5054453;28;20194;-83
2021/07/15 11:15:16;;;;;;;5.90;5.30;;;;;;;32.50;100.00;96310.41;5054548;28;20186;-83
2021/07/15 11:17:50;;;;;;;6.15;4.75;;;;;;;32.60;100.00;96304.81;5054479;28;20571;-82
2021/07/15 11:20:26;;;;;;;5.47;4.53;;;;;;;32.19;100.00;96299.22;5054299;28;20189;-82
2021/07/15 11:22:55;;;;;;;7.47;4.43;;;;;;;32.50;100.00;96302.25;5054186;28;20177;-83
2021/07/15 11:25:38;;;;;;;6.75;4.65;;;;;;;32.43;100.00;96299.91;5053923;28;20240;-83
2021/07/15 11:28:23;;;;;;;5.28;4.45;;;;;;;32.70;100.00;96292.09;5054091;28;20236;-83
2021/07/15 11:30:58;;;;;;;5.47;5.00;;;;;;;32.89;100.00;96293.66;5053652;28;20212;-82
2021/07/15 11:33:37;;;;;;;4.80;4.43;;;;;;;32.95;100.00;96285.41;5054062;28;20209;-82